createdAt,value
2018-04-30T00:00:46.896Z,18.56
2018-04-30T00:01:46.895Z,18.57
2018-04-30T00:02:46.944Z,18.56
2018-04-30T00:03:46.803Z,18.57
2018-04-30T00:04:46.944Z,18.57
2018-04-30T00:05:46.943Z,18.54
2018-04-30T00:06:46.849Z,18.56
2018-04-30T00:07:46.929Z,18.56
2018-04-30T00:08:46.895Z,18.53
2018-04-30T00:09:46.788Z,18.56
2018-04-30T00:10:47.074Z,18.56
2018-04-30T00:11:46.801Z,18.54
2018-04-30T00:12:46.916Z,18.53
2018-04-30T00:13:46.996Z,18.54
2018-04-30T00:14:46.905Z,18.56
2018-04-30T00:15:46.853Z,18.56
2018-04-30T00:16:46.942Z,18.56
2018-04-30T00:17:46.719Z,18.57
2018-04-30T00:18:46.987Z,18.53
2018-04-30T00:19:46.919Z,18.54
2018-04-30T00:20:46.792Z,18.56
2018-04-30T00:21:46.789Z,18.53
2018-04-30T00:22:46.916Z,18.57
2018-04-30T00:23:46.816Z,18.54
2018-04-30T00:24:46.901Z,18.54
2018-04-30T00:25:46.996Z,18.51
2018-04-30T00:26:46.978Z,18.54
2018-04-30T00:27:46.719Z,18.53
2018-04-30T00:28:46.782Z,18.53
2018-04-30T00:29:46.978Z,18.54
2018-04-30T00:30:47.295Z,18.53
2018-04-30T00:31:46.744Z,18.53
2018-04-30T00:32:46.839Z,18.53
2018-04-30T00:33:47.036Z,18.51
2018-04-30T00:34:46.960Z,18.53
2018-04-30T00:35:46.912Z,18.54
2018-04-30T00:36:46.958Z,18.53
2018-04-30T00:37:46.974Z,18.54
2018-04-30T00:38:47.243Z,18.51
2018-04-30T00:39:46.880Z,18.53
2018-04-30T00:40:46.702Z,18.51
2018-04-30T00:41:46.805Z,18.53
2018-04-30T00:42:46.886Z,18.56
2018-04-30T00:43:46.806Z,18.51
2018-04-30T00:44:46.906Z,18.53
2018-04-30T00:45:47.059Z,18.53
2018-04-30T00:46:46.754Z,18.51
2018-04-30T00:47:46.802Z,18.51
2018-04-30T00:48:46.834Z,18.53
2018-04-30T00:49:46.781Z,18.51
2018-04-30T00:50:47.175Z,18.5
2018-04-30T00:51:46.887Z,18.5
2018-04-30T00:52:46.881Z,18.56
2018-04-30T00:53:46.752Z,18.5
2018-04-30T00:54:46.745Z,18.51
2018-04-30T00:55:46.862Z,18.54
2018-04-30T00:56:46.885Z,18.51
2018-04-30T00:57:47.069Z,18.53
2018-04-30T00:58:46.875Z,18.53
2018-04-30T00:59:46.721Z,18.5
2018-04-30T01:00:46.903Z,18.49
2018-04-30T01:01:46.849Z,18.5
2018-04-30T01:02:46.974Z,18.51
2018-04-30T01:03:46.951Z,18.5
2018-04-30T01:04:46.906Z,18.51
2018-04-30T01:05:46.963Z,18.51
2018-04-30T01:06:46.923Z,18.53
2018-04-30T01:07:47.142Z,18.51
2018-04-30T01:08:46.857Z,18.47
2018-04-30T01:09:46.932Z,18.5
2018-04-30T01:10:46.783Z,18.5
2018-04-30T01:11:46.748Z,18.5
2018-04-30T01:12:46.939Z,18.51
2018-04-30T01:13:46.825Z,18.51
2018-04-30T01:14:46.940Z,18.5
2018-04-30T01:15:46.950Z,18.51
2018-04-30T01:16:47.011Z,18.5
2018-04-30T01:17:46.767Z,18.51
2018-04-30T01:18:46.750Z,18.5
2018-04-30T01:19:47.325Z,18.51
2018-04-30T01:20:46.923Z,18.49
2018-04-30T01:21:46.991Z,18.49
2018-04-30T01:22:46.908Z,18.51
2018-04-30T01:23:47.207Z,18.47
2018-04-30T01:24:46.998Z,18.51
2018-04-30T01:25:47.134Z,18.5
2018-04-30T01:26:47.110Z,18.5
2018-04-30T01:27:47.086Z,18.51
2018-04-30T01:28:46.784Z,18.51
2018-04-30T01:29:47.144Z,18.49
2018-04-30T01:30:47.032Z,18.49
2018-04-30T01:31:46.843Z,18.5
2018-04-30T01:32:46.935Z,18.5
2018-04-30T01:33:46.932Z,18.5
2018-04-30T01:34:46.857Z,18.49
2018-04-30T01:35:47.178Z,18.46
2018-04-30T01:36:46.859Z,18.5
2018-04-30T01:37:46.889Z,18.47
2018-04-30T01:38:46.935Z,18.47
2018-04-30T01:39:46.734Z,18.46
2018-04-30T01:40:46.923Z,18.49
2018-04-30T01:41:46.875Z,18.49
2018-04-30T01:42:46.907Z,18.5
2018-04-30T01:43:46.643Z,18.49
2018-04-30T01:44:46.966Z,18.46
2018-04-30T01:45:47.004Z,18.5
2018-04-30T01:46:46.776Z,18.49
2018-04-30T01:47:46.837Z,18.46
2018-04-30T01:48:46.814Z,18.5
2018-04-30T01:49:46.975Z,18.49
2018-04-30T01:50:46.901Z,18.47
2018-04-30T01:51:47.159Z,18.49
2018-04-30T01:52:46.761Z,18.49
2018-04-30T01:53:46.736Z,18.47
2018-04-30T01:54:46.885Z,18.47
2018-04-30T01:55:46.837Z,18.49
2018-04-30T01:56:46.973Z,18.46
2018-04-30T01:57:46.828Z,18.47
2018-04-30T01:58:46.930Z,18.47
2018-04-30T01:59:46.799Z,18.46
2018-04-30T02:00:46.918Z,18.49
2018-04-30T02:01:46.811Z,18.5
2018-04-30T02:02:46.877Z,18.47
2018-04-30T02:03:47.066Z,18.47
2018-04-30T02:04:46.753Z,18.49
2018-04-30T02:05:46.988Z,18.46
2018-04-30T02:06:46.798Z,18.5
2018-04-30T02:07:47.041Z,18.49
2018-04-30T02:08:46.788Z,18.47
2018-04-30T02:09:46.918Z,18.47
2018-04-30T02:10:46.780Z,18.46
2018-04-30T02:11:46.863Z,18.47
2018-04-30T02:12:46.835Z,18.47
2018-04-30T02:13:46.798Z,18.49
2018-04-30T02:14:46.899Z,18.47
2018-04-30T02:15:46.866Z,18.44
2018-04-30T02:16:46.917Z,18.44
2018-04-30T02:17:46.950Z,18.46
2018-04-30T02:18:46.755Z,18.44
2018-04-30T02:19:46.767Z,18.46
2018-04-30T02:20:46.810Z,18.49
2018-04-30T02:21:46.992Z,18.44
2018-04-30T02:22:46.903Z,18.47
2018-04-30T02:23:46.864Z,18.43
2018-04-30T02:24:46.766Z,18.44
2018-04-30T02:25:46.995Z,18.46
2018-04-30T02:26:47.192Z,18.44
2018-04-30T02:27:46.713Z,18.46
2018-04-30T02:28:46.843Z,18.44
2018-04-30T02:29:47.073Z,18.46
2018-04-30T02:30:46.967Z,18.47
2018-04-30T02:31:46.776Z,18.47
2018-04-30T02:32:46.877Z,18.44
2018-04-30T02:33:46.716Z,18.43
2018-04-30T02:34:46.802Z,18.47
2018-04-30T02:35:46.953Z,18.46
2018-04-30T02:36:46.687Z,18.46
2018-04-30T02:37:46.897Z,18.44
2018-04-30T02:38:46.824Z,18.44
2018-04-30T02:39:46.832Z,18.47
2018-04-30T02:40:46.881Z,18.46
2018-04-30T02:41:46.891Z,18.47
2018-04-30T02:42:46.886Z,18.44
2018-04-30T02:43:46.869Z,18.47
2018-04-30T02:44:46.874Z,18.44
2018-04-30T02:45:46.802Z,18.44
2018-04-30T02:46:46.893Z,18.47
2018-04-30T02:47:46.899Z,18.44
2018-04-30T02:48:46.844Z,18.44
2018-04-30T02:49:46.800Z,18.44
2018-04-30T02:50:46.873Z,18.44
2018-04-30T02:51:47.041Z,18.44
2018-04-30T02:52:46.688Z,18.44
2018-04-30T02:53:46.766Z,18.43
2018-04-30T02:54:46.990Z,18.44
2018-04-30T02:55:47.183Z,18.44
2018-04-30T02:56:46.824Z,18.43
2018-04-30T02:57:46.801Z,18.43
2018-04-30T02:58:46.655Z,18.44
2018-04-30T02:59:46.857Z,18.43
2018-04-30T03:00:46.830Z,18.43
2018-04-30T03:01:46.871Z,18.43
2018-04-30T03:02:46.767Z,18.43
2018-04-30T03:03:46.697Z,18.46
2018-04-30T03:04:46.959Z,18.47
2018-04-30T03:05:46.870Z,18.44
2018-04-30T03:06:46.812Z,18.44
2018-04-30T03:07:46.862Z,18.44
2018-04-30T03:08:46.767Z,18.44
2018-04-30T03:09:47.475Z,18.46
2018-04-30T03:10:47.091Z,18.46
2018-04-30T03:11:46.935Z,18.43
2018-04-30T03:12:47.033Z,18.44
2018-04-30T03:13:46.912Z,18.43
2018-04-30T03:14:46.755Z,18.44
2018-04-30T03:15:46.946Z,18.43
2018-04-30T03:16:46.825Z,18.44
2018-04-30T03:17:46.952Z,18.4
2018-04-30T03:18:47.052Z,18.46
2018-04-30T03:19:46.789Z,18.46
2018-04-30T03:20:46.817Z,18.44
2018-04-30T03:21:46.927Z,18.44
2018-04-30T03:22:46.741Z,18.44
2018-04-30T03:23:46.692Z,18.46
2018-04-30T03:24:46.820Z,18.44
2018-04-30T03:25:47.009Z,18.46
2018-04-30T03:26:47.031Z,18.46
2018-04-30T03:27:46.794Z,18.46
2018-04-30T03:28:46.900Z,18.46
2018-04-30T03:29:46.842Z,18.43
2018-04-30T03:30:46.950Z,18.44
2018-04-30T03:31:46.893Z,18.46
2018-04-30T03:32:46.853Z,18.44
2018-04-30T03:33:46.738Z,18.43
2018-04-30T03:34:47.131Z,18.44
2018-04-30T03:35:46.890Z,18.46
2018-04-30T03:36:46.912Z,18.44
2018-04-30T03:37:46.923Z,18.46
2018-04-30T03:38:46.889Z,18.4
2018-04-30T03:39:46.796Z,18.43
2018-04-30T03:40:46.785Z,18.46
2018-04-30T03:41:46.678Z,18.43
2018-04-30T03:42:46.688Z,18.44
2018-04-30T03:43:46.871Z,18.44
2018-04-30T03:44:46.759Z,18.44
2018-04-30T03:45:46.681Z,18.44
2018-04-30T03:46:46.613Z,18.43
2018-04-30T03:47:46.863Z,18.43
2018-04-30T03:48:46.646Z,18.46
2018-04-30T03:49:47.874Z,18.46
2018-04-30T03:50:46.789Z,18.44
2018-04-30T03:51:46.765Z,18.43
2018-04-30T03:52:47.032Z,18.44
2018-04-30T03:53:47.192Z,18.43
2018-04-30T03:54:46.883Z,18.43
2018-04-30T03:55:46.868Z,18.43
2018-04-30T03:56:46.790Z,18.43
2018-04-30T03:57:46.715Z,18.41
2018-04-30T03:58:46.826Z,18.44
2018-04-30T03:59:47.093Z,18.4
2018-04-30T04:00:46.724Z,18.43
2018-04-30T04:01:46.947Z,18.46
2018-04-30T04:02:46.860Z,18.43
2018-04-30T04:03:46.673Z,18.44
2018-04-30T04:04:46.871Z,18.44
2018-04-30T04:05:46.778Z,18.41
2018-04-30T04:06:46.827Z,18.41
2018-04-30T04:07:46.838Z,18.44
2018-04-30T04:08:46.666Z,18.41
2018-04-30T04:09:47.043Z,18.44
2018-04-30T04:10:46.769Z,18.44
2018-04-30T04:11:46.850Z,18.41
2018-04-30T04:12:47.637Z,18.44
2018-04-30T04:13:46.643Z,18.43
2018-04-30T04:14:46.798Z,18.41
2018-04-30T04:15:46.924Z,18.43
2018-04-30T04:16:46.936Z,18.43
2018-04-30T04:17:47.007Z,18.4
2018-04-30T04:18:46.803Z,18.4
2018-04-30T04:19:47.030Z,18.41
2018-04-30T04:20:46.912Z,18.39
2018-04-30T04:21:46.741Z,18.43
2018-04-30T04:22:46.660Z,18.41
2018-04-30T04:23:46.728Z,18.39
2018-04-30T04:24:46.957Z,18.41
2018-04-30T04:25:46.759Z,18.41
2018-04-30T04:26:46.779Z,18.41
2018-04-30T04:27:46.834Z,18.43
2018-04-30T04:28:46.608Z,18.41
2018-04-30T04:29:46.779Z,18.4
2018-04-30T04:30:46.739Z,18.4
2018-04-30T04:31:46.903Z,18.4
2018-04-30T04:32:46.884Z,18.41
2018-04-30T04:33:46.833Z,18.41
2018-04-30T04:34:46.940Z,18.41
2018-04-30T04:35:46.792Z,18.39
2018-04-30T04:36:46.856Z,18.41
2018-04-30T04:37:46.851Z,18.44
2018-04-30T04:38:46.668Z,18.41
2018-04-30T04:39:46.665Z,18.41
2018-04-30T04:40:46.731Z,18.41
2018-04-30T04:41:47.677Z,18.4
2018-04-30T04:42:46.916Z,18.41
2018-04-30T04:43:46.676Z,18.41
2018-04-30T04:44:46.677Z,18.39
2018-04-30T04:45:46.878Z,18.41
2018-04-30T04:46:46.660Z,18.41
2018-04-30T04:47:46.802Z,18.4
2018-04-30T04:48:46.726Z,18.41
2018-04-30T04:49:46.863Z,18.44
2018-04-30T04:50:46.964Z,18.41
2018-04-30T04:51:46.708Z,18.41
2018-04-30T04:52:46.878Z,18.41
2018-04-30T04:53:46.873Z,18.4
2018-04-30T04:54:46.838Z,18.41
2018-04-30T04:55:46.786Z,18.43
2018-04-30T04:56:46.657Z,18.41
2018-04-30T04:57:46.878Z,18.43
2018-04-30T04:58:46.771Z,18.41
2018-04-30T04:59:46.724Z,18.37
2018-04-30T05:00:46.848Z,18.39
2018-04-30T05:01:46.911Z,18.41
2018-04-30T05:02:46.763Z,18.39
2018-04-30T05:03:46.826Z,18.4
2018-04-30T05:04:46.739Z,18.4
2018-04-30T05:05:46.795Z,18.37
2018-04-30T05:06:47.056Z,18.36
2018-04-30T05:07:46.739Z,18.4
2018-04-30T05:08:46.780Z,18.39
2018-04-30T05:09:46.907Z,18.39
2018-04-30T05:10:47.335Z,18.39
2018-04-30T05:11:46.860Z,18.39
2018-04-30T05:12:46.842Z,18.37
2018-04-30T05:13:46.728Z,18.39
2018-04-30T05:14:46.866Z,18.36
2018-04-30T05:15:47.019Z,18.37
2018-04-30T05:16:46.751Z,18.35
2018-04-30T05:17:46.867Z,18.36
2018-04-30T05:18:47.086Z,18.37
2018-04-30T05:19:46.993Z,18.37
2018-04-30T05:20:47.079Z,18.36
2018-04-30T05:21:46.866Z,18.36
2018-04-30T05:22:46.775Z,18.37
2018-04-30T05:23:47.092Z,18.35
2018-04-30T05:24:46.919Z,18.39
2018-04-30T05:25:46.875Z,18.36
2018-04-30T05:26:47.066Z,18.37
2018-04-30T05:27:46.758Z,18.33
2018-04-30T05:28:47.093Z,18.39
2018-04-30T05:29:46.894Z,18.35
2018-04-30T05:30:46.822Z,18.35
2018-04-30T05:31:46.833Z,18.33
2018-04-30T05:32:46.806Z,18.36
2018-04-30T05:33:48.015Z,18.37
2018-04-30T05:34:46.976Z,18.37
2018-04-30T05:35:46.895Z,18.36
2018-04-30T05:36:46.651Z,18.35
2018-04-30T05:37:47.025Z,18.36
2018-04-30T05:38:46.743Z,18.37
2018-04-30T05:39:46.703Z,18.35
2018-04-30T05:40:46.778Z,18.35
2018-04-30T05:41:46.695Z,18.37
2018-04-30T05:42:46.571Z,18.36
2018-04-30T05:43:46.884Z,18.36
2018-04-30T05:44:46.652Z,18.35
2018-04-30T05:45:46.768Z,18.36
2018-04-30T05:46:46.929Z,18.36
2018-04-30T05:47:46.647Z,18.36
2018-04-30T05:48:46.781Z,18.35
2018-04-30T05:49:46.814Z,18.35
2018-04-30T05:50:46.922Z,18.36
2018-04-30T05:51:46.832Z,18.37
2018-04-30T05:52:46.778Z,18.36
2018-04-30T05:53:46.819Z,18.37
2018-04-30T05:54:46.857Z,18.37
2018-04-30T05:55:46.796Z,18.39
2018-04-30T05:56:46.873Z,18.39
2018-04-30T05:57:46.832Z,18.41
2018-04-30T05:58:46.723Z,18.43
2018-04-30T05:59:46.661Z,18.43
2018-04-30T06:00:46.922Z,18.43
2018-04-30T06:01:46.783Z,18.43
2018-04-30T06:02:46.867Z,18.43
2018-04-30T06:03:46.980Z,18.41
2018-04-30T06:04:46.838Z,18.43
2018-04-30T06:05:46.805Z,18.41
2018-04-30T06:06:47.164Z,18.43
2018-04-30T06:07:46.837Z,18.44
2018-04-30T06:08:46.739Z,18.41
2018-04-30T06:09:46.934Z,18.41
2018-04-30T06:10:46.829Z,18.44
2018-04-30T06:11:47.018Z,18.4
2018-04-30T06:12:46.847Z,18.44
2018-04-30T06:13:46.681Z,18.44
2018-04-30T06:14:46.733Z,18.41
2018-04-30T06:15:46.780Z,18.41
2018-04-30T06:16:47.930Z,18.43
2018-04-30T06:17:46.589Z,18.4
2018-04-30T06:18:46.609Z,18.41
2018-04-30T06:19:47.085Z,18.4
2018-04-30T06:20:46.769Z,18.37
2018-04-30T06:21:47.898Z,18.37
2018-04-30T06:22:46.760Z,18.39
2018-04-30T06:23:46.763Z,18.39
2018-04-30T06:24:46.740Z,18.39
2018-04-30T06:25:46.840Z,18.39
2018-04-30T06:26:48.056Z,18.39
2018-04-30T06:27:46.786Z,18.36
2018-04-30T06:28:46.703Z,18.36
2018-04-30T06:29:46.756Z,18.37
2018-04-30T06:30:46.821Z,18.36
2018-04-30T06:31:47.886Z,18.37
2018-04-30T06:32:46.782Z,18.36
2018-04-30T06:33:47.077Z,18.37
2018-04-30T06:34:46.699Z,18.39
2018-04-30T06:35:47.473Z,18.37
2018-04-30T06:36:46.749Z,18.36
2018-04-30T06:37:46.741Z,18.35
2018-04-30T06:38:46.892Z,18.36
2018-04-30T06:39:46.727Z,18.36
2018-04-30T06:40:47.201Z,18.39
2018-04-30T06:41:46.671Z,18.37
2018-04-30T06:42:46.597Z,18.39
2018-04-30T06:43:46.934Z,18.37
2018-04-30T06:44:46.883Z,18.36
2018-04-30T06:45:46.633Z,18.37
2018-04-30T06:46:48.455Z,18.36
2018-04-30T06:47:46.847Z,18.36
2018-04-30T06:48:46.710Z,18.35
2018-04-30T06:49:46.665Z,18.35
2018-04-30T06:50:46.662Z,18.35
2018-04-30T06:51:47.104Z,18.37
2018-04-30T06:52:46.685Z,18.36
2018-04-30T06:53:46.792Z,18.35
2018-04-30T06:54:47.095Z,18.36
2018-04-30T06:55:46.754Z,18.35
2018-04-30T06:56:46.837Z,18.35
2018-04-30T06:57:46.853Z,18.35
2018-04-30T06:58:46.686Z,18.37
2018-04-30T06:59:46.858Z,18.37
2018-04-30T07:00:46.802Z,18.36
2018-04-30T07:01:46.794Z,18.37
2018-04-30T07:02:46.647Z,18.36
2018-04-30T07:03:46.736Z,18.37
2018-04-30T07:04:47.126Z,18.39
2018-04-30T07:05:46.828Z,18.36
2018-04-30T07:06:46.712Z,18.37
2018-04-30T07:07:46.718Z,18.37
2018-04-30T07:08:46.631Z,18.36
2018-04-30T07:09:46.675Z,18.36
2018-04-30T07:10:46.730Z,18.37
2018-04-30T07:11:46.835Z,18.36
2018-04-30T07:12:46.809Z,18.36
2018-04-30T07:13:47.136Z,18.39
2018-04-30T07:14:46.814Z,18.37
2018-04-30T07:15:46.875Z,18.36
2018-04-30T07:16:46.921Z,18.37
2018-04-30T07:17:47.188Z,18.35
2018-04-30T07:18:46.669Z,18.37
2018-04-30T07:19:46.804Z,18.36
2018-04-30T07:20:46.898Z,18.39
2018-04-30T07:21:46.667Z,18.39
2018-04-30T07:22:46.915Z,18.37
2018-04-30T07:23:46.877Z,18.37
2018-04-30T07:24:47.159Z,18.36
2018-04-30T07:25:47.179Z,18.4
2018-04-30T07:26:46.762Z,18.37
2018-04-30T07:27:47.039Z,18.4
2018-04-30T07:28:46.715Z,18.39
2018-04-30T07:29:46.847Z,18.35
2018-04-30T07:30:46.847Z,18.37
2018-04-30T07:31:46.631Z,18.39
2018-04-30T07:32:47.041Z,18.37
2018-04-30T07:33:46.639Z,18.37
2018-04-30T07:34:46.827Z,18.39
2018-04-30T07:35:46.698Z,18.4
2018-04-30T07:36:46.694Z,18.37
2018-04-30T07:37:46.851Z,18.39
2018-04-30T07:38:46.649Z,18.35
2018-04-30T07:39:46.674Z,18.35
2018-04-30T07:40:46.791Z,18.36
2018-04-30T07:41:46.763Z,18.35
2018-04-30T07:42:46.907Z,18.39
2018-04-30T07:43:46.803Z,18.39
2018-04-30T07:44:46.758Z,18.37
2018-04-30T07:45:46.726Z,18.37
2018-04-30T07:46:46.777Z,18.39
2018-04-30T07:47:46.702Z,18.37
2018-04-30T07:48:47.375Z,18.37
2018-04-30T07:49:46.566Z,18.4
2018-04-30T07:50:46.762Z,18.39
2018-04-30T07:51:46.771Z,18.41
2018-04-30T07:52:46.748Z,18.39
2018-04-30T07:53:46.845Z,18.36
2018-04-30T07:54:46.699Z,18.37
2018-04-30T07:55:46.732Z,18.37
2018-04-30T07:56:46.681Z,18.39
2018-04-30T07:57:46.800Z,18.4
2018-04-30T07:59:09.866Z,18.4
2018-04-30T07:59:47.172Z,18.36
2018-04-30T08:00:46.775Z,18.39
2018-04-30T08:01:46.585Z,18.4
2018-04-30T08:02:46.813Z,18.36
2018-04-30T08:03:46.674Z,18.39
2018-04-30T08:04:46.719Z,18.39
2018-04-30T08:05:46.931Z,18.37
2018-04-30T08:06:47.745Z,18.4
2018-04-30T08:07:46.673Z,18.4
2018-04-30T08:08:46.736Z,18.39
2018-04-30T08:09:46.682Z,18.4
2018-04-30T08:10:46.651Z,18.41
2018-04-30T08:11:46.796Z,18.39
2018-04-30T08:12:46.597Z,18.41
2018-04-30T08:13:46.837Z,18.4
2018-04-30T08:14:47.182Z,18.36
2018-04-30T08:15:46.639Z,18.41
2018-04-30T08:16:46.780Z,18.4
2018-04-30T08:17:47.055Z,18.39
2018-04-30T08:18:46.663Z,18.37
2018-04-30T08:19:46.800Z,18.4
2018-04-30T08:20:46.784Z,18.39
2018-04-30T08:21:47.263Z,18.4
2018-04-30T08:22:46.602Z,18.37
2018-04-30T08:23:46.518Z,18.36
2018-04-30T08:24:46.721Z,18.4
2018-04-30T08:25:46.990Z,18.41
2018-04-30T08:26:46.983Z,18.39
2018-04-30T08:27:46.818Z,18.43
2018-04-30T08:28:46.783Z,18.4
2018-04-30T08:29:46.690Z,18.39
2018-04-30T08:30:46.616Z,18.39
2018-04-30T08:31:46.822Z,18.39
2018-04-30T08:32:46.613Z,18.37
2018-04-30T08:33:46.692Z,18.37
2018-04-30T08:34:46.781Z,18.39
2018-04-30T08:35:46.806Z,18.37
2018-04-30T08:36:47.316Z,18.41
2018-04-30T08:37:46.748Z,18.4
2018-04-30T08:38:46.619Z,18.37
2018-04-30T08:39:46.631Z,18.39
2018-04-30T08:40:46.760Z,18.4
2018-04-30T08:41:47.087Z,18.39
2018-04-30T08:42:46.658Z,18.4
2018-04-30T08:43:46.646Z,18.4
2018-04-30T08:44:47.101Z,18.37
2018-04-30T08:45:47.138Z,18.39
2018-04-30T08:46:46.744Z,18.41
2018-04-30T08:47:47.030Z,18.39
2018-04-30T08:48:46.827Z,18.4
2018-04-30T08:49:46.636Z,18.4
2018-04-30T08:50:46.818Z,18.36
2018-04-30T08:51:47.028Z,18.4
2018-04-30T08:52:46.674Z,18.39
2018-04-30T08:53:46.807Z,18.37
2018-04-30T08:54:47.695Z,18.37
2018-04-30T08:55:46.742Z,18.37
2018-04-30T08:56:46.754Z,18.36
2018-04-30T08:57:46.830Z,18.37
2018-04-30T08:58:46.645Z,18.4
2018-04-30T08:59:46.760Z,18.37
2018-04-30T09:00:46.845Z,18.37
2018-04-30T09:01:46.755Z,18.4
2018-04-30T09:02:46.768Z,18.37
2018-04-30T09:03:46.667Z,18.39
2018-04-30T09:04:46.619Z,18.46
2018-04-30T09:05:46.753Z,18.4
2018-04-30T09:06:46.837Z,18.43
2018-04-30T09:07:46.796Z,18.43
2018-04-30T09:08:46.895Z,18.44
2018-04-30T09:09:47.475Z,18.46
2018-04-30T09:10:46.564Z,18.46
2018-04-30T09:11:47.084Z,18.49
2018-04-30T09:12:46.623Z,18.5
2018-04-30T09:13:51.622Z,18.6
2018-04-30T09:15:52.087Z,18.58
2018-04-30T09:16:31.215Z,18.6
2018-04-30T09:18:35.949Z,18.64
2018-04-30T09:21:33.370Z,18.66
2018-04-30T09:23:30.414Z,18.66
2018-04-30T09:24:30.466Z,18.66
2018-04-30T09:25:30.489Z,18.66
2018-04-30T09:26:30.426Z,18.67
2018-04-30T09:27:30.402Z,18.71
2018-04-30T09:28:30.462Z,18.71
2018-04-30T09:29:30.406Z,18.75
2018-04-30T09:32:06.221Z,18.78
2018-04-30T09:33:00.817Z,18.77
2018-04-30T09:34:00.600Z,18.8
2018-04-30T09:35:01.243Z,18.78
2018-04-30T09:36:00.701Z,18.81
2018-04-30T09:37:00.797Z,18.81
2018-04-30T09:37:49.719Z,18.9
2018-04-30T09:38:49.593Z,18.87
2018-04-30T09:39:49.838Z,18.85
2018-04-30T09:40:49.680Z,18.84
2018-04-30T09:41:49.779Z,18.85
2018-04-30T09:42:49.618Z,18.84
2018-04-30T09:46:42.385Z,18.87
2018-04-30T09:47:42.359Z,18.87
2018-04-30T09:48:26.958Z,18.9
2018-04-30T09:49:26.826Z,18.87
2018-04-30T09:50:26.877Z,18.85
2018-04-30T09:51:26.907Z,18.87
2018-04-30T09:52:26.869Z,18.87
2018-04-30T09:53:27.000Z,18.84
2018-04-30T09:54:26.991Z,18.85
2018-04-30T09:55:26.982Z,18.87
2018-04-30T09:55:44.106Z,18.91
2018-04-30T09:56:43.567Z,18.92
2018-04-30T09:57:44.668Z,18.88
2018-04-30T09:58:43.417Z,18.88
2018-04-30T09:59:43.546Z,18.92
2018-04-30T10:00:43.660Z,18.91
2018-04-30T10:01:43.448Z,18.88
2018-04-30T10:02:43.426Z,18.9
2018-04-30T10:03:43.567Z,18.91
2018-04-30T10:04:43.374Z,18.88
2018-04-30T10:05:43.395Z,18.91
2018-04-30T10:06:43.544Z,18.91
2018-04-30T10:07:43.416Z,18.91
2018-04-30T10:08:43.478Z,18.94
2018-04-30T10:09:43.514Z,18.94
2018-04-30T10:10:43.541Z,18.91
2018-04-30T10:11:43.410Z,18.92
2018-04-30T10:12:43.505Z,18.91
2018-04-30T10:13:43.562Z,18.91
2018-04-30T10:14:43.473Z,18.94
2018-04-30T10:15:43.452Z,18.92
2018-04-30T10:16:43.495Z,18.92
2018-04-30T10:17:43.983Z,18.95
2018-04-30T10:18:43.488Z,18.92
2018-04-30T10:19:43.583Z,18.92
2018-04-30T10:20:43.371Z,18.97
2018-04-30T10:21:43.554Z,18.94
2018-04-30T10:22:43.711Z,18.92
2018-04-30T10:23:44.508Z,18.98
2018-04-30T10:24:43.474Z,18.95
2018-04-30T10:25:43.506Z,18.97
2018-04-30T10:26:43.847Z,18.99
2018-04-30T10:27:43.504Z,18.95
2018-04-30T10:28:43.461Z,18.97
2018-04-30T10:29:43.496Z,18.99
2018-04-30T10:30:43.574Z,18.98
2018-04-30T10:31:44.066Z,18.95
2018-04-30T10:32:43.692Z,18.98
2018-04-30T10:33:43.446Z,18.97
2018-04-30T10:34:43.490Z,18.97
2018-04-30T10:35:43.558Z,18.97
2018-04-30T10:36:43.475Z,18.97
2018-04-30T10:37:44.124Z,18.94
2018-04-30T10:38:43.342Z,18.95
2018-04-30T10:39:43.475Z,18.95
2018-04-30T10:40:43.475Z,18.95
2018-04-30T10:41:43.526Z,18.98
2018-04-30T10:42:43.463Z,18.98
2018-04-30T10:43:43.967Z,18.98
2018-04-30T10:44:43.391Z,18.99
2018-04-30T10:45:43.822Z,18.98
2018-04-30T10:46:43.588Z,18.98
2018-04-30T10:47:43.490Z,18.99
2018-04-30T10:48:43.633Z,19.01
2018-04-30T10:49:43.943Z,18.99
2018-04-30T10:50:43.466Z,19.02
2018-04-30T10:51:44.410Z,18.99
2018-04-30T10:52:43.427Z,19.01
2018-04-30T10:53:43.528Z,19.01
2018-04-30T10:54:43.800Z,19.01
2018-04-30T10:55:43.453Z,19.01
2018-04-30T10:56:43.592Z,18.99
2018-04-30T10:57:43.641Z,19.01
2018-04-30T10:58:43.646Z,19.01
2018-04-30T10:59:43.580Z,19.02
2018-04-30T11:00:43.330Z,19.01
2018-04-30T11:01:43.407Z,19.08
2018-04-30T11:02:44.358Z,19.09
2018-04-30T11:03:43.442Z,19.06
2018-04-30T11:04:43.538Z,19.05
2018-04-30T11:05:43.363Z,19.06
2018-04-30T11:06:43.414Z,19.06
2018-04-30T11:07:43.443Z,19.01
2018-04-30T11:08:43.400Z,19.06
2018-04-30T11:09:43.345Z,19.03
2018-04-30T11:10:43.406Z,19.01
2018-04-30T11:11:43.355Z,19.01
2018-04-30T11:12:43.520Z,19.01
2018-04-30T11:13:43.364Z,18.99
2018-04-30T11:14:43.493Z,19.01
2018-04-30T11:15:43.467Z,18.99
2018-04-30T11:16:43.540Z,19.01
2018-04-30T11:17:43.550Z,18.99
2018-04-30T11:18:45.252Z,18.98
2018-04-30T11:19:43.387Z,18.98
2018-04-30T11:20:43.545Z,18.98
2018-04-30T11:21:43.418Z,18.94
2018-04-30T11:22:44.122Z,18.94
2018-04-30T11:23:43.565Z,18.99
2018-04-30T11:24:43.669Z,18.95
2018-04-30T11:25:43.358Z,18.95
2018-04-30T11:26:43.380Z,18.95
2018-04-30T11:27:44.251Z,18.95
2018-04-30T11:28:43.652Z,18.94
2018-04-30T11:29:43.446Z,18.94
2018-04-30T11:30:43.409Z,18.94
2018-04-30T11:31:43.465Z,18.91
2018-04-30T11:32:43.483Z,18.92
2018-04-30T11:33:43.477Z,18.91
2018-04-30T11:34:43.722Z,18.92
2018-04-30T11:35:43.592Z,18.91
2018-04-30T11:36:43.485Z,18.88
2018-04-30T11:37:43.654Z,18.9
2018-04-30T11:38:43.398Z,18.85
2018-04-30T11:39:46.258Z,18.87
2018-04-30T11:40:43.476Z,18.84
2018-04-30T11:41:43.461Z,18.84
2018-04-30T11:42:43.519Z,18.83
2018-04-30T11:43:43.448Z,18.83
2018-04-30T11:44:43.603Z,18.81
2018-04-30T11:45:43.613Z,18.83
2018-04-30T11:46:43.566Z,18.83
2018-04-30T11:47:43.538Z,18.8
2018-04-30T11:48:46.500Z,18.83
2018-04-30T11:49:43.654Z,18.81
2018-04-30T11:50:43.524Z,18.78
2018-04-30T11:51:43.539Z,18.8
2018-04-30T11:52:43.612Z,18.8
2018-04-30T11:53:43.527Z,18.78
2018-04-30T11:54:43.738Z,18.78
2018-04-30T11:55:43.713Z,18.78
2018-04-30T11:56:43.801Z,18.77
2018-04-30T11:57:45.873Z,18.78
2018-04-30T11:58:44.575Z,18.78
2018-04-30T11:59:43.669Z,18.8
2018-04-30T12:00:43.712Z,18.83
2018-04-30T12:01:43.691Z,18.85
2018-04-30T12:02:46.063Z,18.85
2018-04-30T12:03:43.575Z,18.85
2018-04-30T12:04:43.523Z,18.83
2018-04-30T12:05:43.464Z,18.88
2018-04-30T12:06:45.402Z,18.88
2018-04-30T12:07:43.540Z,18.88
2018-04-30T12:08:44.007Z,18.9
2018-04-30T12:09:43.567Z,18.87
2018-04-30T12:10:43.702Z,18.9
2018-04-30T12:11:43.564Z,18.92
2018-04-30T12:12:43.469Z,18.91
2018-04-30T12:13:43.601Z,18.94
2018-04-30T12:14:43.594Z,18.95
2018-04-30T12:15:44.985Z,18.92
2018-04-30T12:16:43.541Z,18.94
2018-04-30T12:17:43.760Z,18.92
2018-04-30T12:18:43.522Z,18.95
2018-04-30T12:19:43.768Z,18.94
2018-04-30T12:20:43.933Z,18.98
2018-04-30T12:21:43.673Z,18.97
2018-04-30T12:22:43.507Z,18.94
2018-04-30T12:23:43.758Z,18.97
2018-04-30T12:24:44.344Z,18.97
2018-04-30T12:25:43.634Z,18.97
2018-04-30T12:26:43.547Z,18.99
2018-04-30T12:27:44.487Z,18.97
2018-04-30T12:28:43.709Z,18.97
2018-04-30T12:29:44.682Z,18.98
2018-04-30T12:30:43.558Z,18.97
2018-04-30T12:31:45.585Z,18.97
2018-04-30T12:32:43.795Z,18.97
2018-04-30T12:33:44.534Z,18.97
2018-04-30T12:34:43.768Z,18.98
2018-04-30T12:35:43.809Z,18.97
2018-04-30T12:36:43.790Z,18.95
2018-04-30T12:37:43.824Z,18.95
2018-04-30T12:38:43.810Z,18.97
2018-04-30T12:39:43.811Z,18.94
2018-04-30T12:40:43.815Z,18.92
2018-04-30T12:41:43.775Z,18.95
2018-04-30T12:42:43.846Z,18.94
2018-04-30T12:43:44.157Z,18.95
2018-04-30T12:44:43.736Z,18.97
2018-04-30T12:45:43.491Z,18.98
2018-04-30T12:46:43.616Z,18.97
2018-04-30T12:47:43.768Z,18.99
2018-04-30T12:48:43.469Z,19.01
2018-04-30T12:49:44.683Z,19.01
2018-04-30T12:50:44.430Z,19.01
2018-04-30T12:51:43.879Z,18.99
2018-04-30T12:52:43.763Z,18.99
2018-04-30T12:53:44.638Z,19.05
2018-04-30T12:54:45.589Z,19.03
2018-04-30T12:55:43.763Z,19.03
2018-04-30T12:56:43.757Z,19.05
2018-04-30T12:57:43.579Z,19.06
2018-04-30T12:58:44.657Z,19.39
2018-04-30T12:59:44.266Z,19.26
2018-04-30T13:00:47.064Z,19.23
2018-04-30T13:01:44.270Z,19.18
2018-04-30T13:02:44.320Z,19.22
2018-04-30T13:03:45.298Z,19.2